createdAt,value
2019-03-26T00:00:55.510Z,7.50
2019-03-26T00:03:27.664Z,9.10
2019-03-26T00:05:58.185Z,8.47
2019-03-26T00:08:28.574Z,7.53
2019-03-26T00:10:58.926Z,7.50
2019-03-26T00:13:29.322Z,7.60
2019-03-26T00:15:59.780Z,8.07
2019-03-26T00:18:30.172Z,7.27
2019-03-26T00:21:00.619Z,7.50
2019-03-26T00:23:31.013Z,6.87
2019-03-26T00:26:01.472Z,6.87
2019-03-26T00:28:31.877Z,6.03
2019-03-26T00:31:02.347Z,6.30
2019-03-26T00:33:36.744Z,6.77
2019-03-26T00:36:05.356Z,6.90
2019-03-26T00:38:35.868Z,6.57
2019-03-26T00:41:06.285Z,6.73
2019-03-26T00:43:36.678Z,6.10
2019-03-26T00:46:07.327Z,5.70
2019-03-26T00:48:37.910Z,6.30
2019-03-26T00:51:08.416Z,7.70
2019-03-26T00:53:38.820Z,6.23
2019-03-26T00:56:09.275Z,7.70
2019-03-26T00:58:39.674Z,7.20
2019-03-26T01:01:10.130Z,6.80
2019-03-26T01:03:41.453Z,6.47
2019-03-26T01:06:11.986Z,6.00
2019-03-26T01:08:42.377Z,5.83
2019-03-26T01:11:12.842Z,5.37
2019-03-26T01:13:43.226Z,6.33
2019-03-26T01:16:13.666Z,5.60
2019-03-26T01:18:44.093Z,6.20
2019-03-26T01:21:14.531Z,6.37
2019-03-26T01:23:44.929Z,4.93
2019-03-26T01:26:15.252Z,6.17
2019-03-26T01:28:45.661Z,5.63
2019-03-26T01:31:16.041Z,6.43
2019-03-26T01:33:46.545Z,6.63
2019-03-26T01:36:16.962Z,8.63
2019-03-26T01:38:47.297Z,9.03
2019-03-26T01:41:17.737Z,8.47
2019-03-26T01:43:48.137Z,8.73
2019-03-26T01:46:18.748Z,8.43
2019-03-26T01:48:49.171Z,10.00
2019-03-26T01:51:19.615Z,10.27
2019-03-26T01:53:50.025Z,11.50
2019-03-26T01:56:20.461Z,8.23
2019-03-26T01:58:50.858Z,9.93
2019-03-26T02:01:21.325Z,7.43
2019-03-26T02:03:52.621Z,6.87
2019-03-26T02:06:23.091Z,6.43
2019-03-26T02:08:53.477Z,8.53
2019-03-26T02:11:23.906Z,8.37
2019-03-26T02:13:54.317Z,6.97
2019-03-26T02:16:24.745Z,6.67
2019-03-26T02:18:55.156Z,10.90
2019-03-26T02:21:25.591Z,6.47
2019-03-26T02:23:55.963Z,7.23
2019-03-26T02:26:26.417Z,6.63
2019-03-26T02:28:56.826Z,5.73
2019-03-26T02:31:27.269Z,6.50
2019-03-26T02:33:57.674Z,6.57
2019-03-26T02:36:28.136Z,7.40
2019-03-26T02:38:58.522Z,7.40
2019-03-26T02:41:28.971Z,6.23
2019-03-26T02:43:59.382Z,6.97
2019-03-26T02:46:29.829Z,7.40
2019-03-26T02:49:00.225Z,7.47
2019-03-26T02:51:30.658Z,9.47
2019-03-26T02:54:01.079Z,7.30
2019-03-26T02:56:31.508Z,5.87
2019-03-26T02:59:01.924Z,7.03
2019-03-26T03:01:32.320Z,6.63
2019-03-26T03:04:03.606Z,5.90
2019-03-26T03:06:34.194Z,5.30
2019-03-26T03:09:07.293Z,5.90
2019-03-26T03:11:37.731Z,6.97
2019-03-26T03:14:08.129Z,6.10
2019-03-26T03:16:38.575Z,7.10
2019-03-26T03:19:08.988Z,7.10
2019-03-26T03:21:39.433Z,6.57
2019-03-26T03:24:09.829Z,8.27
2019-03-26T03:26:42.740Z,7.30
2019-03-26T03:29:23.137Z,7.93
2019-03-26T03:31:59.041Z,6.37
2019-03-26T03:34:39.702Z,6.93
2019-03-26T03:37:16.400Z,11.67
2019-03-26T03:39:51.337Z,6.17
2019-03-26T03:42:27.247Z,10.63
2019-03-26T03:45:03.898Z,10.70
2019-03-26T03:47:40.615Z,11.80
2019-03-26T03:50:19.991Z,26.10
2019-03-26T03:52:56.821Z,8.33
2019-03-26T03:55:31.797Z,8.03
2019-03-26T03:58:09.121Z,8.60
2019-03-26T04:00:43.433Z,9.50
2019-03-26T04:03:21.662Z,7.83
2019-03-26T04:06:08.727Z,9.13
2019-03-26T04:08:36.295Z,9.47
2019-03-26T04:11:10.691Z,15.40
2019-03-26T04:13:46.283Z,8.63
2019-03-26T04:16:23.767Z,8.47
2019-03-26T04:18:59.509Z,7.73
2019-03-26T04:21:30.856Z,12.33
2019-03-26T04:24:01.288Z,15.13
2019-03-26T04:26:31.708Z,13.57
2019-03-26T04:29:02.168Z,12.37
2019-03-26T04:31:32.560Z,13.83
2019-03-26T04:34:03.018Z,13.27
2019-03-26T04:36:42.572Z,8.63
2019-03-26T04:39:19.260Z,8.13
2019-03-26T04:41:58.492Z,7.80
2019-03-26T04:44:34.990Z,7.70
2019-03-26T04:47:12.995Z,7.87
2019-03-26T04:49:45.212Z,8.23
2019-03-26T04:52:15.635Z,7.57
2019-03-26T04:54:46.094Z,8.97
2019-03-26T04:57:16.508Z,7.10
2019-03-26T04:59:46.950Z,7.80
2019-03-26T05:02:17.347Z,7.43
2019-03-26T05:04:47.833Z,7.87
2019-03-26T05:07:19.122Z,7.03
2019-03-26T05:09:49.648Z,7.73
2019-03-26T05:12:20.045Z,8.93
2019-03-26T05:14:50.518Z,7.77
2019-03-26T05:17:25.756Z,8.70
2019-03-26T05:19:56.920Z,10.13
2019-03-26T05:22:27.338Z,10.00
2019-03-26T05:24:57.802Z,8.87
2019-03-26T05:27:28.186Z,9.20
2019-03-26T05:29:58.656Z,9.47
2019-03-26T05:32:29.068Z,10.17
2019-03-26T05:34:59.519Z,10.13
2019-03-26T05:37:29.922Z,9.40
2019-03-26T05:40:00.373Z,11.80
2019-03-26T05:42:30.778Z,12.07
2019-03-26T05:45:01.151Z,13.07
2019-03-26T05:47:31.482Z,14.20
2019-03-26T05:50:01.940Z,15.13
2019-03-26T05:52:32.331Z,15.10
2019-03-26T05:55:02.772Z,14.17
2019-03-26T05:57:33.172Z,19.20
2019-03-26T06:00:04.826Z,18.40
2019-03-26T06:02:36.811Z,17.77
2019-03-26T06:05:08.288Z,18.37
2019-03-26T06:07:39.630Z,16.10
2019-03-26T06:10:10.671Z,18.50
2019-03-26T06:12:41.066Z,23.03
2019-03-26T06:15:12.539Z,30.63
2019-03-26T06:17:42.951Z,29.30
2019-03-26T06:20:13.886Z,33.63
2019-03-26T06:22:44.285Z,34.00
2019-03-26T06:25:14.723Z,28.40
2019-03-26T06:27:45.216Z,35.80
2019-03-26T06:30:15.760Z,34.73
2019-03-26T06:32:46.141Z,32.63
2019-03-26T06:35:16.654Z,31.00
2019-03-26T06:37:47.074Z,28.97
2019-03-26T06:40:17.988Z,29.83
2019-03-26T06:42:48.406Z,31.63
2019-03-26T06:45:18.873Z,30.97
2019-03-26T06:47:49.277Z,29.60
2019-03-26T06:50:22.775Z,25.50
2019-03-26T06:52:53.199Z,24.17
2019-03-26T06:55:23.636Z,24.77
2019-03-26T06:57:54.085Z,25.97
2019-03-26T07:00:32.245Z,23.23
2019-03-26T07:03:03.880Z,25.43
2019-03-26T07:05:34.323Z,24.10
2019-03-26T07:08:05.715Z,25.40
2019-03-26T07:10:36.253Z,24.70
2019-03-26T07:13:06.681Z,25.37
2019-03-26T07:15:37.136Z,25.13
2019-03-26T07:18:07.550Z,30.00
2019-03-26T07:20:38.029Z,31.40
2019-03-26T07:23:08.609Z,29.97
2019-03-26T07:25:39.072Z,28.60
2019-03-26T07:28:12.611Z,30.83
2019-03-26T07:31:07.083Z,31.70
2019-03-26T07:33:51.400Z,31.97
2019-03-26T07:36:59.557Z,33.60
2019-03-26T07:49:49.133Z,34.23
2019-03-26T07:52:43.112Z,32.20
2019-03-26T07:55:14.467Z,33.67
2019-03-26T07:57:44.915Z,34.60
2019-03-26T08:00:15.635Z,32.33
2019-03-26T08:02:46.084Z,42.47
2019-03-26T08:05:29.063Z,31.27
2019-03-26T08:07:58.118Z,32.53
2019-03-26T08:10:34.085Z,31.67
2019-03-26T08:13:17.286Z,32.95
2019-03-26T08:15:55.499Z,30.53
2019-03-26T08:18:28.096Z,32.77
2019-03-26T08:21:01.595Z,30.30
2019-03-26T08:23:32.005Z,30.03
2019-03-26T08:26:02.785Z,31.00
2019-03-26T08:28:35.025Z,32.63
2019-03-26T08:31:19.770Z,31.27
2019-03-26T08:33:50.685Z,33.57
2019-03-26T08:36:22.192Z,30.90
2019-03-26T08:38:53.082Z,31.83
2019-03-26T08:41:24.164Z,31.33
2019-03-26T08:43:54.768Z,32.73
2019-03-26T08:46:26.705Z,33.10
2019-03-26T08:48:59.560Z,35.50
2019-03-26T08:51:30.046Z,40.60
2019-03-26T08:54:06.970Z,40.50
2019-03-26T08:56:41.440Z,43.87
2019-03-26T08:59:11.955Z,37.17
2019-03-26T09:01:42.519Z,33.30
2019-03-26T09:04:14.661Z,30.93
2019-03-26T09:06:48.649Z,31.30
2019-03-26T09:09:19.195Z,32.03
2019-03-26T09:11:50.512Z,28.43
2019-03-26T09:14:21.507Z,28.80
2019-03-26T09:16:53.782Z,31.07
2019-03-26T09:19:27.137Z,28.73
2019-03-26T09:22:07.109Z,31.80
2019-03-26T09:24:40.140Z,33.00
2019-03-26T09:30:02.150Z,32.10
2019-03-26T09:32:33.375Z,34.00
2019-03-26T09:35:06.781Z,34.30
2019-03-26T09:37:40.300Z,38.87
2019-03-26T09:40:11.233Z,35.53
2019-03-26T09:42:41.878Z,36.33
2019-03-26T09:45:12.451Z,39.67
2019-03-26T09:47:42.906Z,36.87
2019-03-26T09:50:16.802Z,36.60
2019-03-26T09:52:47.228Z,35.73
2019-03-26T09:55:26.242Z,37.47
2019-03-26T09:57:56.801Z,41.07
2019-03-26T10:00:27.345Z,43.63
2019-03-26T10:03:03.751Z,41.87
2019-03-26T10:05:34.268Z,43.03
2019-03-26T10:08:10.553Z,48.20
2019-03-26T10:10:45.636Z,48.87
2019-03-26T10:13:19.709Z,49.03
2019-03-26T10:15:53.684Z,49.27
2019-03-26T10:18:24.366Z,51.67
2019-03-26T10:20:54.954Z,53.57
2019-03-26T10:23:27.142Z,51.37
2019-03-26T10:25:59.166Z,53.90
2019-03-26T10:28:31.200Z,54.88
2019-03-26T10:31:19.605Z,55.73
2019-03-26T10:33:50.118Z,49.80
2019-03-26T10:36:20.676Z,47.73
2019-03-26T10:39:05.002Z,47.07
2019-03-26T10:41:28.423Z,48.27
2019-03-26T10:44:00.216Z,45.12
2019-03-26T10:46:30.718Z,43.33
2019-03-26T10:49:01.193Z,40.37
2019-03-26T10:51:31.974Z,40.43
2019-03-26T10:54:03.210Z,42.10
2019-03-26T10:56:33.781Z,33.37
2019-03-26T10:59:04.493Z,33.73
2019-03-26T11:01:36.585Z,32.07
2019-03-26T11:04:07.948Z,31.80
2019-03-26T11:06:38.863Z,34.92
2019-03-26T11:09:23.145Z,33.00
2019-03-26T11:11:43.247Z,34.07
2019-03-26T11:14:14.930Z,34.63
2019-03-26T11:16:48.500Z,35.03
2019-03-26T11:19:18.964Z,35.43
2019-03-26T11:21:49.481Z,38.00
2019-03-26T11:24:20.263Z,46.33
2019-03-26T11:26:50.741Z,41.53
2019-03-26T11:29:22.699Z,34.80
2019-03-26T11:31:53.178Z,36.97
2019-03-26T11:34:23.616Z,37.67
2019-03-26T11:36:56.903Z,37.90
2019-03-26T11:39:32.719Z,40.17
2019-03-26T11:41:59.491Z,44.83
2019-03-26T11:44:29.976Z,40.70
2019-03-26T11:47:00.612Z,38.13
2019-03-26T11:49:34.330Z,34.80
2019-03-26T11:52:08.128Z,32.40
2019-03-26T11:54:38.543Z,31.13
2019-03-26T11:57:09.050Z,32.10
2019-03-26T11:59:39.457Z,29.03
2019-03-26T12:02:11.321Z,28.03
2019-03-26T12:04:41.777Z,24.07
2019-03-26T12:07:12.398Z,26.43
2019-03-26T12:09:46.577Z,30.60
2019-03-26T12:12:15.172Z,23.47
2019-03-26T12:14:46.745Z,23.60
2019-03-26T12:17:34.579Z,24.57
2019-03-26T12:20:10.304Z,20.63
2019-03-26T12:22:40.867Z,19.20
2019-03-26T12:25:11.274Z,17.30
2019-03-26T12:27:41.744Z,17.90
2019-03-26T12:30:14.244Z,22.50
2019-03-26T12:32:47.807Z,20.53
2019-03-26T12:35:30.191Z,19.17
2019-03-26T12:38:00.757Z,18.43
2019-03-26T12:40:31.277Z,18.80
2019-03-26T12:43:01.822Z,18.43
2019-03-26T12:45:32.316Z,19.83
2019-03-26T12:48:02.820Z,20.53
2019-03-26T12:50:33.329Z,20.07
2019-03-26T12:53:05.343Z,18.17
2019-03-26T12:55:35.823Z,18.02
2019-03-26T12:58:06.620Z,18.03
2019-03-26T13:00:37.490Z,16.20
2019-03-26T13:03:08.068Z,17.20
2019-03-26T13:05:38.601Z,25.03
2019-03-26T13:08:09.101Z,21.80
2019-03-26T13:10:52.415Z,23.10
2019-03-26T13:13:11.660Z,27.33
2019-03-26T13:15:43.023Z,22.60
2019-03-26T13:18:13.669Z,24.47
2019-03-26T13:20:44.591Z,23.03
2019-03-26T13:23:15.303Z,21.07
2019-03-26T13:25:45.792Z,23.33
2019-03-26T13:28:16.315Z,20.77
2019-03-26T13:30:46.782Z,19.63
2019-03-26T13:33:17.804Z,22.27
2019-03-26T13:35:48.300Z,19.47
2019-03-26T13:38:19.135Z,21.77
2019-03-26T13:40:51.086Z,20.33
2019-03-26T13:43:21.677Z,23.47
2019-03-26T13:45:52.557Z,27.73
2019-03-26T13:48:23.177Z,25.77
2019-03-26T13:50:53.767Z,22.80
2019-03-26T13:53:27.311Z,19.07
2019-03-26T13:55:57.826Z,19.00
2019-03-26T13:58:28.328Z,18.87
2019-03-26T14:00:59.276Z,17.03
2019-03-26T14:03:32.863Z,16.67
2019-03-26T14:06:04.217Z,19.77
2019-03-26T14:08:34.960Z,16.67
2019-03-26T14:11:05.679Z,16.80
2019-03-26T14:13:36.893Z,16.33
2019-03-26T14:16:08.266Z,18.13
2019-03-26T14:18:38.865Z,18.43
2019-03-26T14:21:11.090Z,18.10
2019-03-26T14:23:41.651Z,18.47
2019-03-26T14:26:12.104Z,20.30
2019-03-26T14:28:43.949Z,17.63
2019-03-26T14:31:20.869Z,21.53
2019-03-26T14:33:52.762Z,22.30
2019-03-26T14:36:24.410Z,18.43
2019-03-26T14:38:54.862Z,17.10
2019-03-26T14:41:25.289Z,18.13
2019-03-26T14:43:55.788Z,16.93
2019-03-26T14:46:26.210Z,17.13
2019-03-26T14:48:57.882Z,17.40
2019-03-26T14:51:28.372Z,16.80
2019-03-26T14:53:58.960Z,18.67
2019-03-26T14:56:29.484Z,21.57
2019-03-26T14:59:02.309Z,21.80
2019-03-26T15:01:32.784Z,22.40
2019-03-26T15:04:03.531Z,21.63
2019-03-26T15:06:33.994Z,21.77
2019-03-26T15:09:06.591Z,20.23
2019-03-26T15:11:37.059Z,21.23
2019-03-26T15:14:07.865Z,19.20
2019-03-26T15:16:40.268Z,18.70
2019-03-26T15:19:13.623Z,18.53
2019-03-26T15:21:44.032Z,20.63
2019-03-26T15:24:14.568Z,17.63
2019-03-26T15:26:46.501Z,19.70
2019-03-26T15:29:17.098Z,21.90
2019-03-26T15:31:47.736Z,24.37
2019-03-26T15:34:18.251Z,21.83
2019-03-26T15:36:48.727Z,19.40
2019-03-26T15:39:19.321Z,20.50
2019-03-26T15:41:50.436Z,21.37
2019-03-26T15:44:20.949Z,25.57
2019-03-26T15:46:51.415Z,31.40
2019-03-26T15:49:21.959Z,24.53
2019-03-26T15:51:52.501Z,25.27
2019-03-26T15:54:23.147Z,18.57
2019-03-26T15:56:53.870Z,19.23
2019-03-26T15:59:24.385Z,17.97
2019-03-26T16:01:54.877Z,18.57
2019-03-26T16:04:25.414Z,19.67
2019-03-26T16:06:57.275Z,18.20
2019-03-26T16:09:28.010Z,17.80
2019-03-26T16:11:58.794Z,19.10
2019-03-26T16:14:29.453Z,18.53
2019-03-26T16:17:00.757Z,17.90
2019-03-26T16:19:32.916Z,22.47
2019-03-26T16:22:03.645Z,21.53
2019-03-26T16:24:34.481Z,20.77
2019-03-26T16:27:05.162Z,23.00
2019-03-26T16:29:35.989Z,24.83
2019-03-26T16:32:06.622Z,24.40
2019-03-26T16:34:37.148Z,23.27
2019-03-26T16:37:07.703Z,22.53
2019-03-26T16:39:39.063Z,23.20
2019-03-26T16:42:09.727Z,28.70
2019-03-26T16:44:42.107Z,23.30
2019-03-26T16:47:14.615Z,23.53
2019-03-26T16:49:45.467Z,23.23
2019-03-26T16:52:16.180Z,23.70
2019-03-26T16:54:46.747Z,22.17
2019-03-26T16:57:17.775Z,21.20
2019-03-26T16:59:48.417Z,22.07
2019-03-26T17:02:18.841Z,22.97
2019-03-26T17:04:49.422Z,25.17
2019-03-26T17:07:19.939Z,24.57
2019-03-26T17:09:50.574Z,26.40
2019-03-26T17:12:21.214Z,27.63
2019-03-26T17:14:51.823Z,28.27
2019-03-26T17:17:23.351Z,28.43
2019-03-26T17:19:53.984Z,32.40
2019-03-26T17:22:24.575Z,29.70
2019-03-26T17:24:55.106Z,33.60
2019-03-26T17:27:28.914Z,31.80
2019-03-26T17:29:58.274Z,31.67
2019-03-26T17:32:28.801Z,32.50
2019-03-26T17:35:02.565Z,29.23
2019-03-26T17:37:33.201Z,28.67
2019-03-26T17:40:08.738Z,26.20
2019-03-26T17:42:42.162Z,28.17
2019-03-26T17:45:12.740Z,27.43
2019-03-26T17:47:43.177Z,30.70
2019-03-26T17:50:13.934Z,31.27
2019-03-26T17:52:44.372Z,28.40
2019-03-26T17:55:14.923Z,24.23
2019-03-26T17:57:45.292Z,27.23
2019-03-26T18:00:19.575Z,25.23
2019-03-26T18:02:49.962Z,26.20
2019-03-26T18:05:25.919Z,26.63
2019-03-26T18:07:56.523Z,34.83
2019-03-26T18:10:26.906Z,30.07
2019-03-26T18:12:58.761Z,28.00
2019-03-26T18:15:29.220Z,27.83
2019-03-26T18:18:00.507Z,41.60
2019-03-26T18:20:32.832Z,30.30
2019-03-26T18:23:03.129Z,26.60
2019-03-26T18:25:33.616Z,25.60
2019-03-26T18:28:04.029Z,27.10
2019-03-26T18:30:34.591Z,28.10
2019-03-26T18:33:04.967Z,26.40
2019-03-26T18:35:35.415Z,28.47
2019-03-26T18:38:05.821Z,27.00
2019-03-26T18:40:36.286Z,26.93
2019-03-26T18:43:06.700Z,30.23
2019-03-26T18:45:37.159Z,25.27
2019-03-26T18:48:07.557Z,23.27
2019-03-26T18:50:38.054Z,22.07
2019-03-26T18:53:08.439Z,21.00
2019-03-26T18:55:38.892Z,21.37
2019-03-26T18:58:09.301Z,20.13
2019-03-26T19:00:39.946Z,19.23
2019-03-26T19:03:10.356Z,19.37
2019-03-26T19:05:40.881Z,21.13
2019-03-26T19:08:11.295Z,22.03
2019-03-26T19:10:43.236Z,21.63
2019-03-26T19:13:19.711Z,25.60
2019-03-26T19:15:45.799Z,20.80
2019-03-26T19:18:16.527Z,20.87
2019-03-26T19:21:01.035Z,22.07
2019-03-26T19:23:19.686Z,22.53
2019-03-26T19:25:50.146Z,28.37
2019-03-26T19:28:20.573Z,31.90
2019-03-26T19:30:51.045Z,27.53
2019-03-26T19:33:21.436Z,25.00
2019-03-26T19:35:51.944Z,25.03
2019-03-26T19:38:22.317Z,22.00
2019-03-26T19:40:52.767Z,21.17
2019-03-26T19:43:23.110Z,24.43
2019-03-26T19:45:53.535Z,20.37
2019-03-26T19:48:23.965Z,20.70
2019-03-26T19:50:54.443Z,20.17
2019-03-26T19:53:24.867Z,22.47
2019-03-26T19:55:55.340Z,21.50
2019-03-26T19:58:25.721Z,21.73
2019-03-26T20:00:56.099Z,21.47
2019-03-26T20:03:26.513Z,20.33
2019-03-26T20:05:56.990Z,21.40
2019-03-26T20:08:27.349Z,22.00
2019-03-26T20:10:57.814Z,27.67
2019-03-26T20:13:28.244Z,23.03
2019-03-26T20:15:58.713Z,22.13
2019-03-26T20:18:29.988Z,21.83
2019-03-26T20:21:00.512Z,21.10
2019-03-26T20:23:30.846Z,22.87
2019-03-26T20:26:01.274Z,19.50
2019-03-26T20:28:31.611Z,19.93
2019-03-26T20:31:02.071Z,20.33
2019-03-26T20:33:32.470Z,19.23
2019-03-26T20:36:03.739Z,20.83
2019-03-26T20:38:34.156Z,19.40
2019-03-26T20:41:04.607Z,22.47
2019-03-26T20:43:37.580Z,20.23
2019-03-26T20:46:07.180Z,20.80
2019-03-26T20:48:37.607Z,24.37
2019-03-26T20:51:08.055Z,22.60
2019-03-26T20:53:38.458Z,24.13
2019-03-26T20:56:08.908Z,21.20
2019-03-26T20:58:39.328Z,20.93
2019-03-26T21:01:09.792Z,19.63
2019-03-26T21:03:40.185Z,18.30
2019-03-26T21:06:10.670Z,18.03
2019-03-26T21:08:41.061Z,18.13
2019-03-26T21:11:11.566Z,17.93
2019-03-26T21:13:50.698Z,17.93
2019-03-26T21:16:14.162Z,19.00
2019-03-26T21:18:45.483Z,18.03
2019-03-26T21:21:16.012Z,18.60
2019-03-26T21:23:46.421Z,19.17
2019-03-26T21:26:16.910Z,19.03
2019-03-26T21:28:47.305Z,18.10
2019-03-26T21:31:17.767Z,17.80
2019-03-26T21:33:48.143Z,17.43
2019-03-26T21:36:18.624Z,17.10
2019-03-26T21:38:49.036Z,17.33
2019-03-26T21:41:19.472Z,19.33
2019-03-26T21:44:03.322Z,21.53
2019-03-26T21:46:22.013Z,20.50
2019-03-26T21:48:52.410Z,23.10
2019-03-26T21:51:22.817Z,24.67
2019-03-26T21:53:53.238Z,24.53
2019-03-26T21:56:23.692Z,25.03
2019-03-26T21:58:54.075Z,25.87
2019-03-26T22:01:24.524Z,26.13
2019-03-26T22:03:54.957Z,26.83
2019-03-26T22:06:25.399Z,27.20
2019-03-26T22:08:55.791Z,26.13
2019-03-26T22:11:26.264Z,25.87
2019-03-26T22:13:56.653Z,26.07
2019-03-26T22:16:27.030Z,27.13
2019-03-26T22:18:58.299Z,26.23
2019-03-26T22:21:28.746Z,25.50
2019-03-26T22:23:59.145Z,28.00
2019-03-26T22:26:29.595Z,23.97
2019-03-26T22:28:59.986Z,22.80
2019-03-26T22:31:30.433Z,22.87
2019-03-26T22:34:00.820Z,22.13
2019-03-26T22:36:31.263Z,19.90
2019-03-26T22:39:01.655Z,19.03
2019-03-26T22:41:32.033Z,18.00
2019-03-26T22:44:02.449Z,19.00
2019-03-26T22:46:32.814Z,16.93
2019-03-26T22:49:03.214Z,17.23
2019-03-26T22:51:33.678Z,16.87
2019-03-26T22:54:04.081Z,17.27
2019-03-26T22:56:34.538Z,15.63
2019-03-26T22:59:04.934Z,18.17
2019-03-26T23:01:35.473Z,16.57
2019-03-26T23:04:05.909Z,16.70
2019-03-26T23:06:36.358Z,16.90
2019-03-26T23:09:07.071Z,16.80
2019-03-26T23:11:37.584Z,15.57
2019-03-26T23:14:07.981Z,16.43
2019-03-26T23:16:38.452Z,14.93
2019-03-26T23:19:09.808Z,16.70
2019-03-26T23:21:40.384Z,15.47
2019-03-26T23:24:10.756Z,16.30
2019-03-26T23:26:41.237Z,18.90
2019-03-26T23:29:11.672Z,18.97
2019-03-26T23:31:42.118Z,19.30
2019-03-26T23:34:12.547Z,21.63
2019-03-26T23:36:42.997Z,21.37
2019-03-26T23:39:13.400Z,18.83
2019-03-26T23:41:43.857Z,19.50
2019-03-26T23:44:25.228Z,18.70
2019-03-26T23:46:46.425Z,27.57
2019-03-26T23:49:16.821Z,38.47
2019-03-26T23:51:47.271Z,49.90
2019-03-26T23:54:17.706Z,44.77
2019-03-26T23:56:48.139Z,36.87
2019-03-26T23:59:18.522Z,32.40
